Página principal
Imagens de satélite Previsões 15 diasClimaMeteorologia maritima Ciclones Descargas eléctricas AeroportosFAQ Notícias Sobre
Tempo : Europa África América do Norte América do Sul Ásia Austrália-Oceania Outros
Línguas Contacto

Cambridge, Inglaterra

latitude: 52-12N, longitude: 000-11E, altura: 15 m


METAR: EGSC 271920Z 12006KT 060V170 9999 FEW035 16/11 Q1013
short-TAF: EGSC 271659Z 2718/2721 13010KT 9999 SCT040
long-TAF: em falta

Hora: 21:56 (20:56 UTC)

Observação actual do tempo

O boletim foi feito há 1 hora e 36 minutos, às 19:20 UTC  
Vento 06 kt de es-sudeste, variando entre es-nordeste e sul
Temperatura 16°C
Humidade 72%
Pressão 1013 hPa
Visibilidade 10 km ou mais
Poucas nuvens a uma altura de 3500 ft

Mudar unidades

Previsão

O boletim foi feito há 3 horas e 41 minutos, às 17:15 UTC  
Previsão válida de 27 às 18 UTC a 27 às 21 UTC
Vento 10 kt de sudeste
Visibilidade 10 km ou mais
Nuvens dispersas a uma altura de 4000 ft
As informações contidas neste sítio estão sujeitas a uma declaração de exoneração de responsabilidade
Tempo : Europa África América do Norte América do Sul Ásia Austrália-Oceania Outros
Imagens de satélite Previsões 15 diasClimaMeteorologia maritima Ciclones Descargas eléctricas AeroportosFAQ Línguas Contacto Notícias Sobre